Chrisopigi Lady — A8EQ9 — position and weather

sailwx.info

Track history (hours):
 
Tides and Currents Weather Stations Pressure Air Temp Water Temp Dewpoint Dewpoint Depression Visibility Wind Speed Wind Dir Waves Ship Positions

Chrisopigi Lady

Last reported at 2017-Jan-05 13:34 UTC. Time now 2017-Jan-23 06:31 UTC.
Position N 33°55' W 014°52'.
Warning: this ship's position is 17 days out of date.

Length 228 m; draft 12.1 m.

Type: Ship (hazmat cat A). MMSI: 636012314.

Date/timePositionNaut miles runAvg speedWind from/ knotsBaromVisibWave heightAir tempDewpointWater temp
2017-Jan-05 13:34N 33°55' W 014°52'1211.5
2017-Jan-05 12:34N 33°58' W 014°38'1211.6
2017-Jan-05 11:33N 34°01' W 014°25'1411.7
2017-Jan-05 10:24N 34°05' W 014°09'3311.6
2017-Jan-05 07:32N 34°15' W 013°31'1111.3
2017-Jan-05 06:33N 34°18' W 013°18'4811.6
2017-Jan-05 02:26N 34°31' W 012°22'1111.4
2017-Jan-05 01:30N 34°34' W 012°10'1111.6
2017-Jan-05 00:33N 34°37' W 011°57'32511.2
2017-Jan-03 19:33N 35°58' W 005°32'1010.3
2017-Jan-03 18:34N 36°01' W 005°20'  
Track history (hours):
 
Tides and Currents Weather Stations Pressure Air Temp Water Temp Dewpoint Dewpoint Depression Visibility Wind Speed Wind Dir Waves Ship Positions

Chrisopigi Lady

Last reported at 2017-Jan-05 13:34 UTC. Time now 2017-Jan-23 06:31 UTC.
Position N 33°55' W 014°52'.
Warning: this ship's position is 17 days out of date.

Length 228 m; draft 12.1 m.

Type: Ship (hazmat cat A). MMSI: 636012314.

Date/timePositionNaut miles runAvg speedWind from/ knotsBaromVisibWave heightAir tempDewpointWater temp
2017-Jan-05 13:34N 33°55' W 014°52'1211.5
2017-Jan-05 12:34N 33°58' W 014°38'1211.6
2017-Jan-05 11:33N 34°01' W 014°25'1411.7
2017-Jan-05 10:24N 34°05' W 014°09'3311.6
2017-Jan-05 07:32N 34°15' W 013°31'1111.3
2017-Jan-05 06:33N 34°18' W 013°18'4811.6
2017-Jan-05 02:26N 34°31' W 012°22'1111.4
2017-Jan-05 01:30N 34°34' W 012°10'1111.6
2017-Jan-05 00:33N 34°37' W 011°57'32511.2
2017-Jan-03 19:33N 35°58' W 005°32'1010.3
2017-Jan-03 18:34N 36°01' W 005°20'  

Dump ship's entire track history